Time;durP1;ratioP1;P1;durP2;ratioP2;P2;SDS_P1;SDS_P2;PMS_P1;PMS_P2;Temp;Humidity;BMP_temperature;BMP_pressure;BME280_temperature;BME280_humidity;BME280_pressure;Samples;Min_cycle;Max_cycle;Signal;HPM_P1;HPM_P2
2022/06/30 00:01:16;;;;;;;13.72;12.33;;;;;;;19.91;84.95;100581.95;1666009;83;25776;-79
2022/06/30 00:03:43;;;;;;;14.30;12.80;;;;;;;19.90;85.09;100581.14;1676655;83;28934;-79
2022/06/30 00:06:09;;;;;;;15.00;12.40;;;;;;;19.89;85.06;100580.84;1670474;83;25982;-79
2022/06/30 00:08:35;;;;;;;14.95;11.97;;;;;;;19.88;85.16;100573.77;1672937;85;25348;-79
2022/06/30 00:11:06;;;;;;;16.67;12.80;;;;;;;19.91;85.41;100572.42;1668973;84;26062;-79
2022/06/30 00:13:30;;;;;;;15.63;13.15;;;;;;;19.91;85.76;100565.63;1674703;85;26108;-79
2022/06/30 00:15:56;;;;;;;14.43;13.00;;;;;;;19.87;85.61;100567.20;1673234;83;28045;-79
2022/06/30 00:18:22;;;;;;;15.53;13.93;;;;;;;19.80;86.06;100564.65;1677004;85;26238;-79
2022/06/30 00:20:48;;;;;;;14.80;12.95;;;;;;;19.75;86.32;100562.40;1662625;85;25827;-79
2022/06/30 00:23:15;;;;;;;14.50;12.78;;;;;;;19.66;86.49;100555.72;1652219;85;26056;-79
2022/06/30 00:25:41;;;;;;;14.13;12.73;;;;;;;19.59;86.80;100554.52;1666525;85;26189;-79
2022/06/30 00:28:07;;;;;;;13.32;11.97;;;;;;;19.52;87.56;100555.77;1674500;84;27443;-79
2022/06/30 00:30:33;;;;;;;14.47;12.60;;;;;;;19.44;88.01;100552.11;1682612;84;25826;-79
2022/06/30 00:33:00;;;;;;;15.43;13.60;;;;;;;19.40;88.61;100557.72;1671946;85;26010;-79
2022/06/30 00:35:26;;;;;;;14.53;12.98;;;;;;;19.35;89.18;100563.91;1682839;83;26348;-79
2022/06/30 00:37:52;;;;;;;14.47;12.98;;;;;;;19.35;89.66;100561.20;1683833;83;25856;-79
2022/06/30 00:40:19;;;;;;;14.18;12.65;;;;;;;19.36;89.82;100557.92;1685747;83;27440;-79
2022/06/30 00:42:45;;;;;;;15.75;13.93;;;;;;;19.37;89.75;100558.22;1681088;83;25823;-79
2022/06/30 00:45:11;;;;;;;17.90;13.83;;;;;;;19.38;89.87;100557.97;1689598;83;25863;-79
2022/06/30 00:47:38;;;;;;;15.23;13.32;;;;;;;19.40;89.96;100558.55;1676759;83;25937;-79
2022/06/30 00:50:06;;;;;;;15.10;13.68;;;;;;;19.39;90.28;100556.91;1683138;85;26663;-79
2022/06/30 00:52:36;;;;;;;16.48;12.93;;;;;;;19.36;90.39;100555.20;1669147;84;27888;-79
2022/06/30 00:55:05;;;;;;;15.43;13.60;;;;;;;19.35;90.47;100548.14;1672573;82;25940;-79
2022/06/30 00:57:33;;;;;;;14.18;12.68;;;;;;;19.35;90.62;100539.98;1664005;85;25310;-79
2022/06/30 01:00:04;;;;;;;16.90;14.40;;;;;;;19.34;91.58;100530.15;1665443;85;26060;-79
2022/06/30 01:02:30;;;;;;;17.30;13.68;;;;;;;19.32;91.35;100533.12;1664335;85;25895;-79
2022/06/30 01:04:57;;;;;;;14.80;13.30;;;;;;;19.33;91.39;100528.52;1652552;85;27444;-79
2022/06/30 01:07:25;;;;;;;18.15;15.13;;;;;;;19.37;91.68;100543.28;1670497;85;25765;-79
2022/06/30 01:12:42;;;;;;;16.00;13.50;;;;;;;19.38;91.75;100538.95;1669130;85;26253;-79
2022/06/30 01:15:15;;;;;;;16.62;14.20;;;;;;;19.38;91.90;100538.95;1668920;83;26060;-79
2022/06/30 01:17:43;;;;;;;16.27;14.05;;;;;;;19.43;91.83;100534.98;1682752;84;27432;-79
2022/06/30 01:20:10;;;;;;;18.00;14.65;;;;;;;19.47;91.79;100538.84;1652627;84;26126;-79
2022/06/30 01:22:38;;;;;;;15.18;13.65;;;;;;;19.52;91.48;100541.66;1674084;85;25853;-79
2022/06/30 01:25:06;;;;;;;18.23;14.23;;;;;;;19.56;91.49;100541.45;1654686;85;26873;-79
2022/06/30 01:27:32;;;;;;;15.58;13.95;;;;;;;19.56;91.30;100527.87;1678771;83;25287;-79
2022/06/30 01:29:59;;;;;;;15.58;13.95;;;;;;;19.54;91.09;100522.38;1657913;84;27524;-79
2022/06/30 01:32:28;;;;;;;16.30;14.53;;;;;;;19.51;91.13;100529.66;1674671;84;25883;-79
2022/06/30 01:34:54;;;;;;;14.95;13.35;;;;;;;19.51;91.30;100541.88;1653705;85;26069;-79
2022/06/30 01:37:21;;;;;;;16.25;14.68;;;;;;;19.51;91.15;100544.59;1682530;84;26084;-79
2022/06/30 01:39:47;;;;;;;16.10;14.40;;;;;;;19.51;91.03;100534.56;1680912;83;25303;-79
2022/06/30 01:42:14;;;;;;;16.00;14.40;;;;;;;19.50;91.25;100530.22;1664120;84;28262;-79
2022/06/30 01:44:41;;;;;;;16.87;14.07;;;;;;;19.47;91.26;100529.34;1674224;82;25919;-79
2022/06/30 01:47:09;;;;;;;17.27;13.90;;;;;;;19.47;91.47;100525.27;1678749;85;25985;-79
2022/06/30 01:49:36;;;;;;;17.50;14.80;;;;;;;19.49;91.69;100523.65;1660637;85;26086;-79
2022/06/30 01:52:04;;;;;;;16.50;14.80;;;;;;;19.47;91.83;100518.47;1669636;84;25912;-79
2022/06/30 01:54:30;;;;;;;18.17;14.47;;;;;;;19.47;91.97;100521.19;1653227;85;27208;-80
2022/06/30 01:56:57;;;;;;;16.65;14.68;;;;;;;19.46;92.17;100516.01;1668391;85;25767;-79
2022/06/30 01:59:23;;;;;;;16.32;14.35;;;;;;;19.44;92.36;100513.52;1664704;84;25705;-79
2022/06/30 02:01:49;;;;;;;16.30;14.45;;;;;;;19.40;92.57;100516.97;1679286;85;26770;-79
2022/06/30 02:07:00;;;;;;;15.90;13.75;;;;;;;19.39;92.49;100528.39;1669833;84;28073;-79
2022/06/30 02:09:27;;;;;;;18.50;15.43;;;;;;;19.40;92.79;100531.38;1670802;83;26114;-79
2022/06/30 02:12:44;;;;;;;15.65;14.05;;;;;;;19.41;92.71;100526.78;1655875;84;25349;-79
2022/06/30 02:14:21;;;;;;;16.50;14.15;;;;;;;19.42;92.39;100511.58;1661139;85;26912;-79
2022/06/30 02:16:47;;;;;;;16.45;14.87;;;;;;;19.44;92.57;100508.64;1675184;85;25943;-79
2022/06/30 02:19:13;;;;;;;15.20;13.58;;;;;;;19.44;92.60;100507.28;1666981;84;27680;-79
2022/06/30 02:21:40;;;;;;;17.62;14.10;;;;;;;19.43;92.66;100509.17;1659899;84;25901;-79
2022/06/30 02:24:06;;;;;;;16.15;14.45;;;;;;;19.43;92.52;100506.98;1661591;85;25973;-79
2022/06/30 02:26:32;;;;;;;16.02;14.47;;;;;;;19.45;92.75;100507.55;1665419;85;25816;-79
2022/06/30 02:28:59;;;;;;;15.95;14.25;;;;;;;19.43;92.79;100501.02;1677878;85;25983;-79
2022/06/30 02:31:25;;;;;;;17.55;14.35;;;;;;;19.45;92.90;100502.95;1675889;84;27422;-79
2022/06/30 02:33:51;;;;;;;16.20;14.50;;;;;;;19.44;92.89;100508.08;1664260;83;25886;-79
2022/06/30 02:36:19;;;;;;;15.98;14.23;;;;;;;19.40;93.15;100508.81;1669202;85;25613;-80
2022/06/30 02:38:46;;;;;;;16.02;14.45;;;;;;;19.37;93.27;100507.97;1658837;84;26080;-79
2022/06/30 02:41:12;;;;;;;16.67;14.90;;;;;;;19.33;93.57;100502.71;1678230;85;25987;-79
2022/06/30 02:43:38;;;;;;;15.80;14.18;;;;;;;19.29;93.57;100505.64;1672864;82;27627;-79
2022/06/30 02:46:05;;;;;;;17.67;14.85;;;;;;;19.26;93.89;100501.52;1656905;83;25985;-80
2022/06/30 02:48:31;;;;;;;16.15;14.40;;;;;;;19.25;94.16;100503.40;1682613;85;25726;-79
2022/06/30 02:50:57;;;;;;;16.57;14.60;;;;;;;19.27;94.48;100503.14;1668481;85;26619;-79
2022/06/30 02:53:23;;;;;;;17.40;14.50;;;;;;;19.25;94.74;100507.47;1671011;85;25779;-80
2022/06/30 02:55:50;;;;;;;16.95;15.18;;;;;;;19.24;95.23;100505.84;1671002;83;27456;-79
2022/06/30 02:58:17;;;;;;;18.50;14.95;;;;;;;19.23;95.20;100509.61;1671358;85;25797;-79
2022/06/30 03:00:44;;;;;;;17.12;14.03;;;;;;;19.24;95.40;100513.16;1669065;84;25759;-79
2022/06/30 03:03:10;;;;;;;19.95;15.40;;;;;;;19.24;95.82;100505.84;1669457;85;26075;-79
2022/06/30 03:05:36;;;;;;;16.62;15.03;;;;;;;19.21;95.52;100509.03;1661230;83;25934;-79
2022/06/30 03:08:03;;;;;;;16.87;15.18;;;;;;;19.26;95.70;100516.45;1674183;83;27634;-79
2022/06/30 03:10:29;;;;;;;17.98;15.48;;;;;;;19.31;95.71;100517.08;1679214;83;26289;-79
2022/06/30 03:12:56;;;;;;;16.48;14.58;;;;;;;19.33;95.89;100516.30;1667581;84;25864;-80
2022/06/30 03:15:22;;;;;;;17.70;15.58;;;;;;;19.38;95.90;100524.54;1669108;84;26146;-79
2022/06/30 03:17:48;;;;;;;17.30;15.25;;;;;;;19.41;95.91;100527.61;1673065;85;25821;-79
2022/06/30 03:20:14;;;;;;;18.73;14.65;;;;;;;19.45;96.12;100533.36;1682889;84;27448;-79
2022/06/30 03:22:41;;;;;;;17.17;15.40;;;;;;;19.47;96.04;100527.15;1668550;84;25871;-79
2022/06/30 03:25:07;;;;;;;16.65;14.50;;;;;;;19.48;96.23;100524.17;1656694;85;25592;-79
2022/06/30 03:27:34;;;;;;;16.50;14.20;;;;;;;19.51;96.39;100530.48;1674040;84;26065;-79
2022/06/30 03:30:00;;;;;;;16.65;14.95;;;;;;;19.53;96.45;100533.78;1665663;85;25905;-79
2022/06/30 03:32:26;;;;;;;16.55;14.68;;;;;;;19.54;96.51;100531.89;1671690;84;27689;-79
2022/06/30 03:34:52;;;;;;;16.77;14.50;;;;;;;19.54;96.52;100534.08;1671296;84;25922;-79
2022/06/30 03:37:21;;;;;;;16.75;14.98;;;;;;;19.53;96.73;100533.78;1676811;84;25303;-79
2022/06/30 03:39:47;;;;;;;15.40;13.45;;;;;;;19.54;97.17;100533.25;1679537;84;26120;-79
2022/06/30 03:42:13;;;;;;;15.88;14.28;;;;;;;19.54;97.36;100535.97;1673059;85;26531;-79
2022/06/30 03:44:39;;;;;;;16.27;14.68;;;;;;;19.51;97.62;100542.72;1660104;83;28314;-79
2022/06/30 03:47:06;;;;;;;17.15;14.50;;;;;;;19.52;97.95;100535.39;1666937;85;25782;-79
2022/06/30 03:49:32;;;;;;;22.50;14.98;;;;;;;19.51;98.33;100542.72;1674700;84;25945;-79
2022/06/30 03:51:58;;;;;;;15.58;13.98;;;;;;;19.52;98.40;100544.38;1680833;85;26066;-79
2022/06/30 03:54:25;;;;;;;15.90;13.65;;;;;;;19.53;98.49;100530.23;1672189;83;26016;-79
2022/06/30 03:56:51;;;;;;;17.05;13.85;;;;;;;19.54;99.18;100539.52;1685166;83;27962;-80
2022/06/30 03:59:18;;;;;;;16.85;15.05;;;;;;;19.54;99.10;100543.59;1657316;85;26528;-80
2022/06/30 04:01:44;;;;;;;16.50;13.45;;;;;;;19.59;99.06;100549.09;1664648;85;26495;-80
2022/06/30 04:04:10;;;;;;;18.17;14.00;;;;;;;19.63;99.11;100552.95;1681192;83;26118;-80
2022/06/30 04:06:37;;;;;;;14.55;13.15;;;;;;;19.68;99.36;100549.50;1682681;84;25309;-80
2022/06/30 04:09:03;;;;;;;17.02;13.98;;;;;;;19.72;99.60;100545.22;1657881;84;27432;-80
2022/06/30 04:11:29;;;;;;;15.60;14.13;;;;;;;19.76;100.00;100540.96;1669228;84;25895;-80
2022/06/30 04:13:56;;;;;;;16.02;14.35;;;;;;;19.78;99.85;100542.89;1669829;83;26059;-80
2022/06/30 04:16:22;;;;;;;14.75;13.38;;;;;;;19.81;99.84;100545.09;1663864;84;26083;-80
2022/06/30 04:18:48;;;;;;;14.13;12.75;;;;;;;19.85;100.00;100543.52;1663259;85;25403;-80
2022/06/30 04:21:16;;;;;;;18.92;14.45;;;;;;;19.86;100.00;100555.53;1670296;84;27502;-80
2022/06/30 04:23:44;;;;;;;16.02;13.25;;;;;;;19.91;100.00;100554.75;1673724;84;26273;-80
2022/06/30 04:26:10;;;;;;;15.95;14.30;;;;;;;19.97;100.00;100552.43;1676960;83;25902;-79
2022/06/30 04:28:38;;;;;;;15.45;12.20;;;;;;;20.03;100.00;100547.88;1673696;85;26232;-80
2022/06/30 04:33:50;;;;;;;14.65;13.30;;;;;;;20.14;99.90;100567.35;1671741;84;27465;-80
2022/06/30 04:36:16;;;;;;;14.50;12.88;;;;;;;20.21;99.79;100568.84;1671148;85;25621;-80
2022/06/30 04:38:43;;;;;;;16.52;13.72;;;;;;;20.28;99.78;100576.83;1670764;85;25921;-79
2022/06/30 04:41:24;;;;;;;16.30;12.43;;;;;;;20.34;99.71;100579.89;1674166;85;26051;-80
2022/06/30 04:43:56;;;;;;;14.33;12.98;;;;;;;20.40;99.41;100585.16;1681898;84;25946;-80
2022/06/30 04:46:23;;;;;;;15.43;13.08;;;;;;;20.49;99.67;100585.02;1667458;84;28304;-81
2022/06/30 04:48:51;;;;;;;15.78;13.28;;;;;;;20.57;99.20;100598.18;1658823;84;25789;-80
2022/06/30 04:51:18;;;;;;;16.12;13.10;;;;;;;20.65;99.10;100610.02;1669769;85;25687;-80
2022/06/30 04:53:44;;;;;;;18.80;13.72;;;;;;;20.74;98.78;100631.62;1668155;84;26861;-80
2022/06/30 04:56:11;;;;;;;16.65;13.58;;;;;;;20.81;98.62;100638.80;1678326;82;25323;-80
2022/06/30 04:58:39;;;;;;;14.90;13.30;;;;;;;20.87;98.51;100638.58;1679468;83;27498;-80
2022/06/30 05:01:05;;;;;;;17.62;14.10;;;;;;;20.93;98.15;100658.02;1669281;84;25850;-80
2022/06/30 05:03:32;;;;;;;16.48;13.60;;;;;;;20.98;97.67;100657.27;1662625;84;26468;-80
2022/06/30 05:05:59;;;;;;;14.68;13.08;;;;;;;20.98;97.58;100645.81;1677879;85;26107;-80
2022/06/30 05:08:26;;;;;;;17.90;13.15;;;;;;;20.99;97.53;100641.19;1665854;84;25934;-81
2022/06/30 05:10:52;;;;;;;15.60;12.82;;;;;;;20.98;97.58;100634.12;1675750;85;27624;-80
2022/06/30 05:13:19;;;;;;;15.95;12.50;;;;;;;20.99;97.54;100620.77;1681288;84;25866;-80
2022/06/30 05:15:45;;;;;;;17.92;12.35;;;;;;;21.02;97.68;100613.47;1672480;83;25898;-81
2022/06/30 05:18:13;;;;;;;12.75;11.55;;;;;;;21.10;98.12;100626.13;1656592;85;26064;-80
2022/06/30 05:20:40;;;;;;;16.62;13.08;;;;;;;21.14;97.62;100615.53;1672439;85;25881;-80
2022/06/30 05:23:08;;;;;;;14.85;11.75;;;;;;;21.18;97.64;100602.51;1678493;85;27503;-80
2022/06/30 05:28:21;;;;;;;17.20;12.60;;;;;;;21.21;97.55;100614.80;1652907;85;25964;-80
2022/06/30 05:30:49;;;;;;;14.20;12.35;;;;;;;21.23;97.33;100626.27;1664423;85;26875;-81
2022/06/30 05:33:15;;;;;;;13.05;11.35;;;;;;;21.28;97.56;100612.14;1668948;84;26084;-80
2022/06/30 05:35:42;;;;;;;16.27;11.00;;;;;;;21.31;97.42;100593.94;1683912;83;27448;-80
2022/06/30 05:38:08;;;;;;;14.93;12.53;;;;;;;21.34;97.42;100587.16;1683728;83;25771;-80
2022/06/30 05:40:35;;;;;;;14.30;12.37;;;;;;;21.35;96.87;100607.33;1673445;85;26226;-80
2022/06/30 05:43:01;;;;;;;13.60;11.68;;;;;;;21.39;96.92;100611.70;1662112;83;26078;-80
2022/06/30 05:45:27;;;;;;;13.53;12.15;;;;;;;21.41;96.98;100595.92;1672798;83;26184;-80
2022/06/30 05:47:53;;;;;;;14.80;12.60;;;;;;;21.42;96.71;100589.41;1683636;85;28294;-80
2022/06/30 05:50:22;;;;;;;16.75;12.75;;;;;;;21.47;96.97;100596.25;1657358;85;25802;-80
2022/06/30 05:52:50;;;;;;;16.07;13.32;;;;;;;21.53;97.08;100604.78;1671191;85;25347;-80
2022/06/30 05:55:17;;;;;;;14.00;12.63;;;;;;;21.59;96.78;100593.37;1669675;85;27098;-81
2022/06/30 05:57:58;;;;;;;15.98;12.20;;;;;;;21.62;96.72;100580.59;1671884;85;25856;-80
2022/06/30 06:00:27;;;;;;;13.72;12.25;;;;;;;21.67;96.67;100584.17;1651803;85;27754;-80
2022/06/30 06:02:54;;;;;;;14.80;13.20;;;;;;;21.68;96.53;100582.28;1663968;85;26533;-80
2022/06/30 06:05:21;;;;;;;18.17;13.35;;;;;;;21.71;96.76;100574.92;1665039;83;26514;-80
2022/06/30 06:07:48;;;;;;;15.72;11.85;;;;;;;21.72;96.44;100571.96;1662667;82;27144;-80
2022/06/30 06:10:15;;;;;;;17.40;12.07;;;;;;;21.78;96.67;100576.37;1681621;84;25931;-80
2022/06/30 06:12:43;;;;;;;14.40;12.63;;;;;;;21.85;96.67;100585.73;1671744;84;28251;-80
2022/06/30 06:15:12;;;;;;;16.90;12.55;;;;;;;21.90;96.30;100589.30;1677584;83;25915;-80
2022/06/30 06:17:46;;;;;;;13.65;12.25;;;;;;;21.93;95.82;100586.06;1660507;85;25339;-80
2022/06/30 06:20:16;;;;;;;16.97;14.23;;;;;;;21.99;96.66;100586.37;1670670;84;26079;-80
2022/06/30 06:22:43;;;;;;;16.02;12.50;;;;;;;22.07;96.08;100579.59;1681744;85;25840;-81
2022/06/30 06:25:11;;;;;;;15.50;12.40;;;;;;;22.15;96.11;100577.20;1679431;83;27463;-80
2022/06/30 06:27:38;;;;;;;18.10;13.75;;;;;;;22.22;95.77;100578.33;1673202;83;25440;-80
2022/06/30 06:30:07;;;;;;;14.95;12.63;;;;;;;22.24;94.90;100574.80;1668611;85;25801;-79
2022/06/30 06:32:34;;;;;;;14.03;12.30;;;;;;;22.24;95.39;100574.27;1652687;83;26324;-80
2022/06/30 06:35:01;;;;;;;14.07;12.25;;;;;;;22.30;95.19;100585.22;1655194;85;25833;-80
2022/06/30 06:37:27;;;;;;;14.68;12.47;;;;;;;22.32;95.10;100585.77;1673104;84;27445;-80
2022/06/30 06:39:54;;;;;;;15.45;12.55;;;;;;;22.35;94.71;100586.63;1664743;85;25773;-80
2022/06/30 06:42:20;;;;;;;14.98;13.05;;;;;;;22.36;94.88;100587.72;1677029;85;25793;-80
2022/06/30 06:44:47;;;;;;;16.97;13.08;;;;;;;22.40;94.45;100593.45;1660723;83;26079;-80
2022/06/30 06:47:15;;;;;;;15.40;12.80;;;;;;;22.41;94.96;100598.64;1680498;85;26446;-80
2022/06/30 06:49:46;;;;;;;16.87;11.88;;;;;;;22.47;94.61;100604.97;1698380;83;27276;-80
2022/06/30 06:52:12;;;;;;;;;;;;;;;22.52;94.53;100602.28;1667588;85;25855;-80
2022/06/30 06:54:38;;;;;;;14.55;12.53;;;;;;;22.57;94.33;100611.84;1678544;83;25767;-80
2022/06/30 06:57:06;;;;;;;18.12;12.43;;;;;;;22.60;94.94;100621.74;1674935;85;26071;-80
2022/06/30 06:59:34;;;;;;;14.47;12.93;;;;;;;22.61;94.28;100619.27;1683491;83;25739;-80
2022/06/30 07:02:01;;;;;;;17.40;12.15;;;;;;;22.64;94.35;100613.83;1668210;84;28315;-80
2022/06/30 07:04:27;;;;;;;14.98;12.90;;;;;;;22.66;94.19;100612.48;1670452;83;25820;-80
2022/06/30 07:06:54;;;;;;;17.17;12.90;;;;;;;22.67;94.04;100614.11;1658130;84;25818;-80
2022/06/30 07:09:20;;;;;;;17.23;13.38;;;;;;;22.66;93.79;100610.29;1653140;85;26059;-80
2022/06/30 07:11:48;;;;;;;14.15;12.58;;;;;;;22.67;94.14;100611.38;1661972;85;25969;-81
2022/06/30 07:14:14;;;;;;;13.68;12.37;;;;;;;22.70;94.38;100603.20;1658664;83;27483;-80
2022/06/30 07:16:40;;;;;;;14.87;12.82;;;;;;;22.73;94.30;100600.75;1668862;84;25878;-81
2022/06/30 07:19:07;;;;;;;15.72;13.45;;;;;;;22.75;94.00;100598.58;1669361;85;25881;-81
2022/06/30 07:21:33;;;;;;;16.82;13.10;;;;;;;22.80;93.95;100603.24;1672021;83;26510;-80
2022/06/30 07:23:59;;;;;;;16.60;12.75;;;;;;;22.84;94.16;100598.89;1676908;83;26021;-80
2022/06/30 07:26:26;;;;;;;16.52;13.13;;;;;;;22.90;93.97;100594.55;1665278;85;27443;-81
2022/06/30 07:28:52;;;;;;;14.28;12.85;;;;;;;22.98;94.35;100601.42;1664866;85;25814;-80
2022/06/30 07:31:20;;;;;;;15.90;12.60;;;;;;;23.05;94.35;100594.34;1664315;84;25846;-80
2022/06/30 07:33:47;;;;;;;13.98;12.50;;;;;;;23.17;94.82;100590.80;1677046;82;26084;-80
2022/06/30 07:36:13;;;;;;;15.28;13.65;;;;;;;23.22;93.68;100590.83;1682586;83;25384;-81
2022/06/30 07:38:40;;;;;;;19.23;13.60;;;;;;;23.31;93.93;100586.48;1682031;84;28213;-80
2022/06/30 07:41:06;;;;;;;16.23;13.53;;;;;;;23.38;93.93;100604.28;1665255;85;26459;-80
2022/06/30 07:43:33;;;;;;;16.12;13.32;;;;;;;23.50;93.37;100604.84;1659377;85;25900;-80
2022/06/30 07:45:59;;;;;;;20.23;13.43;;;;;;;23.61;93.66;100606.50;1657443;83;26067;-80
2022/06/30 07:48:25;;;;;;;16.27;13.55;;;;;;;23.73;92.92;100607.08;1682264;84;25344;-80
2022/06/30 07:50:52;;;;;;;16.15;12.98;;;;;;;23.83;92.35;100596.66;1658098;84;27417;-80
2022/06/30 07:53:18;;;;;;;15.05;13.48;;;;;;;23.91;92.41;100596.11;1682369;85;26490;-80
2022/06/30 07:55:44;;;;;;;15.80;13.05;;;;;;;24.00;91.93;100600.48;1682048;83;25751;-80
2022/06/30 07:58:11;;;;;;;16.10;13.70;;;;;;;24.12;92.51;100601.06;1654217;85;26321;-81
2022/06/30 08:00:37;;;;;;;14.85;12.37;;;;;;;24.25;91.88;100603.24;1661639;85;25468;-81
2022/06/30 08:03:04;;;;;;;14.85;13.45;;;;;;;24.39;92.05;100591.44;1658052;85;27438;-79
2022/06/30 08:05:30;;;;;;;15.85;12.88;;;;;;;24.54;91.59;100587.83;1674042;85;25356;-80
2022/06/30 08:07:56;;;;;;;17.52;12.85;;;;;;;24.67;90.67;100593.26;1654361;85;25786;-80
2022/06/30 08:10:22;;;;;;;16.50;12.13;;;;;;;24.78;90.61;100599.00;1674865;85;26056;-80
2022/06/30 08:12:49;;;;;;;14.83;13.43;;;;;;;24.91;90.41;100602.52;1668199;85;25923;-81
2022/06/30 08:15:15;;;;;;;14.25;12.35;;;;;;;25.06;90.73;100595.59;1669525;83;28326;-81
2022/06/30 08:17:42;;;;;;;16.45;13.10;;;;;;;25.18;90.39;100580.98;1659684;84;25572;-80
2022/06/30 08:20:09;;;;;;;15.03;13.70;;;;;;;25.29;89.37;100578.45;1679146;85;25847;-81
2022/06/30 08:22:35;;;;;;;17.60;13.48;;;;;;;25.42;90.14;100578.40;1672451;85;26064;-80
2022/06/30 08:25:02;;;;;;;14.05;12.45;;;;;;;25.53;89.17;100578.59;1652694;85;25729;-80
2022/06/30 08:27:29;;;;;;;14.73;13.00;;;;;;;25.59;88.35;100574.70;1659913;85;27633;-81
2022/06/30 08:29:55;;;;;;;15.88;13.93;;;;;;;25.66;87.86;100577.38;1670162;84;26016;-80
2022/06/30 08:32:22;;;;;;;16.67;13.22;;;;;;;25.72;87.88;100566.65;1664609;85;25907;-80
2022/06/30 08:34:49;;;;;;;14.60;12.80;;;;;;;25.78;87.19;100565.50;1675250;83;26132;-81
2022/06/30 08:37:15;;;;;;;13.70;12.40;;;;;;;25.85;88.05;100555.56;1669941;84;25916;-80
2022/06/30 08:42:28;;;;;;;14.23;12.75;;;;;;;25.99;87.18;100556.51;1670442;85;25790;-80
2022/06/30 08:47:41;;;;;;;14.13;12.82;;;;;;;25.93;86.32;100555.75;1681919;85;26089;-80
2022/06/30 08:50:09;;;;;;;15.65;13.22;;;;;;;25.96;86.73;100552.41;1682180;84;26225;-80
2022/06/30 08:52:52;;;;;;;13.55;11.75;;;;;;;25.97;86.41;100552.69;1660703;85;28433;-80
2022/06/30 08:55:25;;;;;;;16.57;12.73;;;;;;;26.00;85.83;100554.05;1665501;85;25273;-81
2022/06/30 08:57:57;;;;;;;18.77;12.78;;;;;;;25.96;85.44;100543.38;1675133;85;25587;-80
2022/06/30 09:00:24;;;;;;;14.80;13.30;;;;;;;25.94;85.35;100551.06;1663436;84;26059;-80
2022/06/30 09:02:50;;;;;;;14.20;12.80;;;;;;;25.92;85.81;100547.24;1676710;84;25712;-80
2022/06/30 09:05:17;;;;;;;14.55;12.80;;;;;;;25.97;86.24;100551.32;1680100;83;27443;-80
2022/06/30 09:07:43;;;;;;;15.38;13.55;;;;;;;26.02;86.04;100558.11;1680282;84;25977;-80
2022/06/30 09:10:10;;;;;;;14.98;13.18;;;;;;;26.07;85.99;100553.13;1679822;85;25871;-81
2022/06/30 09:12:36;;;;;;;13.93;12.53;;;;;;;26.12;85.97;100546.80;1663550;85;26675;-80
2022/06/30 09:15:04;;;;;;;15.95;13.43;;;;;;;26.19;86.20;100539.88;1664960;84;25904;-80
2022/06/30 09:17:31;;;;;;;15.90;13.50;;;;;;;26.30;86.48;100529.59;1681099;85;27469;-81
2022/06/30 09:20:08;;;;;;;16.30;13.62;;;;;;;26.43;85.57;100526.15;1667567;85;25947;-81
2022/06/30 09:22:38;;;;;;;19.15;13.48;;;;;;;26.55;86.31;100516.38;1672336;85;25346;-80
2022/06/30 09:25:12;;;;;;;15.35;12.30;;;;;;;26.71;85.37;100507.36;1663704;83;26471;-80
2022/06/30 09:27:41;;;;;;;13.60;12.37;;;;;;;26.84;84.64;100503.91;1661368;84;25602;-81
2022/06/30 09:30:21;;;;;;;13.70;12.53;;;;;;;26.97;84.15;100509.22;1657577;84;27502;-80
2022/06/30 09:33:02;;;;;;;15.80;13.22;;;;;;;27.06;84.13;100509.65;1671095;84;25607;-80
2022/06/30 09:35:28;;;;;;;;;;;;;;;27.19;83.61;100506.16;1656919;85;25747;-80
2022/06/30 09:38:10;;;;;;;14.70;13.13;;;;;;;27.32;83.74;100508.16;1681827;84;26651;-80
2022/06/30 09:43:37;;;;;;;15.03;13.53;;;;;;;27.51;81.20;100512.27;1664769;85;27645;-80
2022/06/30 09:46:05;;;;;;;15.05;13.65;;;;;;;27.58;82.13;100518.21;1677073;85;26008;-80
2022/06/30 09:48:33;;;;;;;16.65;12.73;;;;;;;27.70;82.29;100513.59;1669799;85;26655;-80
2022/06/30 09:51:03;;;;;;;13.20;11.50;;;;;;;27.86;82.32;100505.33;1657102;85;26098;-80
2022/06/30 09:53:32;;;;;;;16.60;12.65;;;;;;;27.99;80.61;100506.75;1665743;84;25838;-80
2022/06/30 09:56:14;;;;;;;13.15;11.97;;;;;;;28.07;80.41;100512.95;1665032;85;28215;-80
2022/06/30 09:58:42;;;;;;;13.03;11.73;;;;;;;28.17;80.12;100506.41;1666646;85;26590;-80
2022/06/30 10:01:11;;;;;;;15.63;11.80;;;;;;;28.27;80.45;100510.36;1656940;85;25869;-80
2022/06/30 10:03:48;;;;;;;13.53;11.60;;;;;;;28.36;80.00;100496.11;1672160;85;26304;-80
2022/06/30 10:06:18;;;;;;;12.33;11.00;;;;;;;28.50;80.04;100498.87;1668473;83;26033;-79
2022/06/30 10:08:45;;;;;;;12.33;10.43;;;;;;;28.69;77.84;100504.55;1670453;83;27587;-80
2022/06/30 10:11:11;;;;;;;11.53;10.53;;;;;;;28.80;77.63;100503.76;1662573;85;25745;-80
2022/06/30 10:13:43;;;;;;;14.35;10.85;;;;;;;28.94;76.13;100498.45;1672606;85;25914;-80
2022/06/30 10:16:13;;;;;;;12.23;10.20;;;;;;;29.09;75.75;100495.91;1657215;83;26154;-80
2022/06/30 10:18:40;;;;;;;12.65;10.45;;;;;;;29.20;75.88;100498.71;1668675;84;25925;-80
2022/06/30 10:21:10;;;;;;;12.50;10.80;;;;;;;29.32;74.98;100495.41;1672667;85;28398;-80
2022/06/30 10:23:37;;;;;;;;;;;;;;;29.42;73.73;100494.59;1662114;85;25991;-79
2022/06/30 10:26:06;;;;;;;12.00;10.63;;;;;;;29.52;73.20;100504.54;1678126;85;25960;-80
2022/06/30 10:28:33;;;;;;;12.35;11.05;;;;;;;29.55;72.73;100503.37;1674743;84;26320;-80
2022/06/30 10:31:20;;;;;;;14.50;12.00;;;;;;;29.63;70.27;100497.64;1664861;85;25903;-79
2022/06/30 10:34:01;;;;;;;13.40;11.43;;;;;;;29.73;72.14;100507.88;1663560;85;27890;-81
2022/06/30 10:36:34;;;;;;;;;;;;;;;29.76;71.65;100498.16;1674461;85;25770;-79
2022/06/30 10:39:11;;;;;;;12.45;11.18;;;;;;;29.82;71.16;100498.83;1667636;84;26503;-80
2022/06/30 10:41:46;;;;;;;13.08;11.78;;;;;;;29.89;70.31;100501.41;1672760;84;25830;-80
2022/06/30 10:44:24;;;;;;;13.48;11.60;;;;;;;29.91;69.48;100494.99;1664946;83;26092;-80
2022/06/30 10:46:56;;;;;;;13.50;11.95;;;;;;;29.96;70.08;100490.69;1675438;85;27466;-79
2022/06/30 10:49:26;;;;;;;15.08;11.70;;;;;;;30.07;69.89;100501.72;1669713;85;26429;-79
2022/06/30 10:51:58;;;;;;;16.75;13.88;;;;;;;30.11;70.39;100501.91;1681175;85;25844;-80
2022/06/30 10:54:32;;;;;;;14.33;12.00;;;;;;;30.15;69.65;100494.06;1658455;85;26676;-80
2022/06/30 10:57:01;;;;;;;12.45;11.22;;;;;;;30.24;69.23;100496.27;1656408;84;26529;-80
2022/06/30 10:59:41;;;;;;;12.98;11.50;;;;;;;30.40;69.96;100493.91;1658601;85;27481;-80
2022/06/30 11:02:15;;;;;;;13.13;12.00;;;;;;;30.53;67.18;100490.22;1667033;85;25817;-80
2022/06/30 11:04:48;;;;;;;13.75;12.55;;;;;;;30.60;68.17;100496.66;1669105;83;25861;-80
2022/06/30 11:07:21;;;;;;;14.05;12.63;;;;;;;30.57;66.80;100490.38;1665760;85;26866;-80
2022/06/30 11:09:57;;;;;;;15.80;12.82;;;;;;;30.54;66.60;100484.91;1660714;83;26591;-80
2022/06/30 11:12:38;;;;;;;13.75;12.58;;;;;;;30.50;67.16;100481.17;1671555;85;27453;-79
2022/06/30 11:15:04;;;;;;;20.47;13.73;;;;;;;30.48;65.87;100476.53;1679257;83;26057;-79
2022/06/30 11:17:32;;;;;;;14.70;13.28;;;;;;;30.54;66.07;100476.63;1682798;84;25901;-80
2022/06/30 11:20:09;;;;;;;14.07;12.40;;;;;;;30.66;67.08;100482.36;1662769;85;26877;-80
2022/06/30 11:22:36;;;;;;;13.32;12.20;;;;;;;30.72;66.61;100481.06;1673830;85;26171;-80
2022/06/30 11:25:10;;;;;;;15.10;13.55;;;;;;;30.72;66.52;100485.20;1666554;85;28486;-80
2022/06/30 11:27:38;;;;;;;15.68;13.58;;;;;;;30.72;65.36;100472.77;1681931;84;25802;-80
2022/06/30 11:30:09;;;;;;;16.32;13.30;;;;;;;30.71;65.70;100475.86;1682495;85;25961;-80
2022/06/30 11:32:37;;;;;;;15.20;13.70;;;;;;;30.75;65.72;100472.69;1661048;84;26078;-79